sensor_id;sensor_type;location;lat;lon;timestamp;pressure;altitude;pressure_sealevel;temperature;humidity
12360;BME280;6244;51.460;7.090;2023-03-26T00:01:02;99819.59;;;6.83;89.40
12360;BME280;6244;51.460;7.090;2023-03-26T00:06:01;99828.28;;;6.83;89.49
12360;BME280;6244;51.460;7.090;2023-03-26T00:11:00;99821.97;;;6.87;89.92
12360;BME280;6244;51.460;7.090;2023-03-26T00:15:56;99820.97;;;6.90;90.02
12360;BME280;6244;51.460;7.090;2023-03-26T00:20:53;99814.75;;;6.92;89.43
12360;BME280;6244;51.460;7.090;2023-03-26T00:25:50;99814.69;;;6.94;89.23
12360;BME280;6244;51.460;7.090;2023-03-26T00:30:49;99814.63;;;6.95;88.56
12360;BME280;6244;51.460;7.090;2023-03-26T00:35:52;99806.09;;;6.92;88.70
12360;BME280;6244;51.460;7.090;2023-03-26T00:40:49;99796.66;;;6.89;88.57
12360;BME280;6244;51.460;7.090;2023-03-26T00:45:45;99795.66;;;6.92;88.08
12360;BME280;6244;51.460;7.090;2023-03-26T00:50:45;99799.03;;;6.94;88.23
12360;BME280;6244;51.460;7.090;2023-03-26T00:55:43;99796.22;;;6.98;87.83
12360;BME280;6244;51.460;7.090;2023-03-26T01:00:43;99792.69;;;6.99;87.17
12360;BME280;6244;51.460;7.090;2023-03-26T01:05:47;99789.84;;;7.04;86.39
12360;BME280;6244;51.460;7.090;2023-03-26T01:10:47;99785.03;;;6.96;86.11
12360;BME280;6244;51.460;7.090;2023-03-26T01:15:46;99773.75;;;6.96;86.23
12360;BME280;6244;51.460;7.090;2023-03-26T01:20:48;99770.97;;;6.99;85.43
12360;BME280;6244;51.460;7.090;2023-03-26T01:25:52;99770.22;;;6.97;85.76
12360;BME280;6244;51.460;7.090;2023-03-26T01:30:54;99769.22;;;6.99;85.41
12360;BME280;6244;51.460;7.090;2023-03-26T01:35:59;99765.50;;;7.03;84.56
12360;BME280;6244;51.460;7.090;2023-03-26T01:40:59;99760.47;;;7.00;84.43
12360;BME280;6244;51.460;7.090;2023-03-26T01:46:02;99751.88;;;6.98;84.07
12360;BME280;6244;51.460;7.090;2023-03-26T01:51:00;99743.22;;;6.98;84.15
12360;BME280;6244;51.460;7.090;2023-03-26T01:56:06;99737.06;;;6.99;84.42
12360;BME280;6244;51.460;7.090;2023-03-26T02:01:15;99723.78;;;7.03;83.48
12360;BME280;6244;51.460;7.090;2023-03-26T02:06:22;99718.13;;;6.95;83.75
12360;BME280;6244;51.460;7.090;2023-03-26T02:11:22;99710.59;;;6.89;83.71
12360;BME280;6244;51.460;7.090;2023-03-26T02:16:19;99697.66;;;6.88;83.81
12360;BME280;6244;51.460;7.090;2023-03-26T02:21:17;99692.06;;;6.78;84.33
12360;BME280;6244;51.460;7.090;2023-03-26T02:26:17;99693.06;;;6.75;84.14
12360;BME280;6244;51.460;7.090;2023-03-26T02:31:15;99684.41;;;6.75;83.90
12360;BME280;6244;51.460;7.090;2023-03-26T02:36:14;99681.94;;;6.72;84.06
12360;BME280;6244;51.460;7.090;2023-03-26T02:41:13;99678.94;;;6.80;83.91
12360;BME280;6244;51.460;7.090;2023-03-26T02:46:10;99674.56;;;6.80;83.61
12360;BME280;6244;51.460;7.090;2023-03-26T02:51:08;99668.44;;;6.81;84.08
12360;BME280;6244;51.460;7.090;2023-03-26T02:56:05;99670.13;;;6.82;83.84
12360;BME280;6244;51.460;7.090;2023-03-26T03:01:02;99674.47;;;6.82;83.69
12360;BME280;6244;51.460;7.090;2023-03-26T03:05:59;99655.94;;;6.88;83.94
12360;BME280;6244;51.460;7.090;2023-03-26T03:10:58;99642.81;;;6.89;83.82
12360;BME280;6244;51.460;7.090;2023-03-26T03:15:55;99627.25;;;6.88;83.63
12360;BME280;6244;51.460;7.090;2023-03-26T03:20:51;99623.97;;;6.84;83.87
12360;BME280;6244;51.460;7.090;2023-03-26T03:25:49;99611.00;;;6.83;83.94
12360;BME280;6244;51.460;7.090;2023-03-26T03:30:48;99615.97;;;6.87;83.63
12360;BME280;6244;51.460;7.090;2023-03-26T03:35:47;99601.09;;;6.89;83.87
12360;BME280;6244;51.460;7.090;2023-03-26T03:40:44;99606.47;;;6.86;83.40
12360;BME280;6244;51.460;7.090;2023-03-26T03:45:41;99603.84;;;6.86;83.57
12360;BME280;6244;51.460;7.090;2023-03-26T03:50:39;99604.69;;;6.87;83.67
12360;BME280;6244;51.460;7.090;2023-03-26T03:55:36;99596.88;;;6.87;83.52
12360;BME280;6244;51.460;7.090;2023-03-26T04:00:36;99585.34;;;6.91;83.38
12360;BME280;6244;51.460;7.090;2023-03-26T04:05:35;99581.91;;;6.90;83.59
12360;BME280;6244;51.460;7.090;2023-03-26T04:10:34;99586.47;;;7.02;83.57
12360;BME280;6244;51.460;7.090;2023-03-26T04:15:30;99573.44;;;7.18;82.77
12360;BME280;6244;51.460;7.090;2023-03-26T04:20:27;99566.22;;;7.07;81.95
12360;BME280;6244;51.460;7.090;2023-03-26T04:25:23;99551.06;;;6.98;81.79
12360;BME280;6244;51.460;7.090;2023-03-26T04:30:26;99548.44;;;6.98;81.93
12360;BME280;6244;51.460;7.090;2023-03-26T04:35:22;99544.28;;;6.94;81.64
12360;BME280;6244;51.460;7.090;2023-03-26T04:40:20;99540.13;;;7.07;81.42
12360;BME280;6244;51.460;7.090;2023-03-26T04:45:17;99528.41;;;7.15;80.55
12360;BME280;6244;51.460;7.090;2023-03-26T04:50:18;99519.09;;;7.11;79.96
12360;BME280;6244;51.460;7.090;2023-03-26T04:55:20;99524.53;;;7.06;79.94
12360;BME280;6244;51.460;7.090;2023-03-26T05:00:18;99510.50;;;7.09;79.98
12360;BME280;6244;51.460;7.090;2023-03-26T05:05:17;99499.28;;;7.06;79.90
12360;BME280;6244;51.460;7.090;2023-03-26T05:10:15;99498.88;;;6.98;80.15
12360;BME280;6244;51.460;7.090;2023-03-26T05:15:12;99501.31;;;7.01;80.29
12360;BME280;6244;51.460;7.090;2023-03-26T05:20:20;99486.25;;;7.06;80.15
12360;BME280;6244;51.460;7.090;2023-03-26T05:25:18;99485.09;;;7.12;79.96
12360;BME280;6244;51.460;7.090;2023-03-26T05:30:16;99476.09;;;7.02;79.85
12360;BME280;6244;51.460;7.090;2023-03-26T05:35:13;99456.97;;;7.01;81.32
12360;BME280;6244;51.460;7.090;2023-03-26T05:40:13;99467.34;;;6.87;82.54
12360;BME280;6244;51.460;7.090;2023-03-26T05:45:12;99458.59;;;6.72;83.34
12360;BME280;6244;51.460;7.090;2023-03-26T05:50:09;99449.31;;;6.67;84.34
12360;BME280;6244;51.460;7.090;2023-03-26T05:55:07;99437.13;;;6.67;84.71
12360;BME280;6244;51.460;7.090;2023-03-26T06:00:07;99430.25;;;6.66;85.07
12360;BME280;6244;51.460;7.090;2023-03-26T06:05:05;99422.16;;;6.55;85.84
12360;BME280;6244;51.460;7.090;2023-03-26T06:10:02;99419.81;;;6.51;86.02
12360;BME280;6244;51.460;7.090;2023-03-26T06:14:59;99411.81;;;6.54;86.71
12360;BME280;6244;51.460;7.090;2023-03-26T06:19:57;99418.63;;;6.56;87.77
12360;BME280;6244;51.460;7.090;2023-03-26T06:24:53;99414.25;;;6.57;87.85
12360;BME280;6244;51.460;7.090;2023-03-26T06:29:50;99412.16;;;6.63;87.55
12360;BME280;6244;51.460;7.090;2023-03-26T06:34:47;99407.63;;;6.67;87.39
12360;BME280;6244;51.460;7.090;2023-03-26T06:39:44;99403.94;;;6.71;87.79
12360;BME280;6244;51.460;7.090;2023-03-26T06:44:41;99406.94;;;6.79;87.57
12360;BME280;6244;51.460;7.090;2023-03-26T06:49:37;99406.47;;;6.72;87.97
12360;BME280;6244;51.460;7.090;2023-03-26T06:54:36;99405.94;;;6.66;87.56
12360;BME280;6244;51.460;7.090;2023-03-26T06:59:33;99398.88;;;6.68;88.24
12360;BME280;6244;51.460;7.090;2023-03-26T07:04:30;99396.88;;;6.73;88.22
12360;BME280;6244;51.460;7.090;2023-03-26T07:09:26;99392.56;;;6.88;88.43
12360;BME280;6244;51.460;7.090;2023-03-26T07:14:24;99389.44;;;6.97;88.08
12360;BME280;6244;51.460;7.090;2023-03-26T07:19:23;99372.41;;;7.05;88.14
12360;BME280;6244;51.460;7.090;2023-03-26T07:24:20;99372.41;;;7.05;87.57
12360;BME280;6244;51.460;7.090;2023-03-26T07:29:25;99364.56;;;7.21;87.97
12360;BME280;6244;51.460;7.090;2023-03-26T07:34:35;99354.13;;;7.21;87.83
12360;BME280;6244;51.460;7.090;2023-03-26T07:39:44;99350.19;;;7.14;88.31
12360;BME280;6244;51.460;7.090;2023-03-26T07:44:49;99340.41;;;7.18;88.70
12360;BME280;6244;51.460;7.090;2023-03-26T07:49:51;99341.22;;;7.34;88.28
12360;BME280;6244;51.460;7.090;2023-03-26T07:54:49;99328.91;;;7.36;88.62
12360;BME280;6244;51.460;7.090;2023-03-26T07:59:50;99327.22;;;7.35;88.51
12360;BME280;6244;51.460;7.090;2023-03-26T08:05:01;99315.28;;;7.31;88.56
12360;BME280;6244;51.460;7.090;2023-03-26T08:10:09;99312.84;;;7.28;89.21
12360;BME280;6244;51.460;7.090;2023-03-26T08:15:16;99309.09;;;7.18;89.65
12360;BME280;6244;51.460;7.090;2023-03-26T08:20:21;99310.22;;;7.14;89.26
12360;BME280;6244;51.460;7.090;2023-03-26T08:25:26;99310.31;;;7.12;89.38
12360;BME280;6244;51.460;7.090;2023-03-26T08:30:25;99301.03;;;7.22;89.55
12360;BME280;6244;51.460;7.090;2023-03-26T08:35:24;99295.09;;;7.34;89.71
12360;BME280;6244;51.460;7.090;2023-03-26T08:46:23;99296.03;;;7.48;89.69
12360;BME280;6244;51.460;7.090;2023-03-26T08:57:12;99298.91;;;7.43;89.57
12360;BME280;6244;51.460;7.090;2023-03-26T09:08:21;99301.97;;;7.35;90.54
12360;BME280;6244;51.460;7.090;2023-03-26T09:13:52;99294.97;;;7.22;90.30
12360;BME280;6244;51.460;7.090;2023-03-26T09:24:54;99292.16;;;7.11;90.59
12360;BME280;6244;51.460;7.090;2023-03-26T09:30:22;99292.72;;;7.16;91.31
12360;BME280;6244;51.460;7.090;2023-03-26T09:35:36;99291.88;;;7.15;91.63
12360;BME280;6244;51.460;7.090;2023-03-26T09:40:48;99287.97;;;7.22;90.83
12360;BME280;6244;51.460;7.090;2023-03-26T09:45:56;99285.00;;;7.28;91.00
12360;BME280;6244;51.460;7.090;2023-03-26T09:51:11;99281.84;;;7.38;91.59
12360;BME280;6244;51.460;7.090;2023-03-26T09:56:24;99285.69;;;7.46;91.17
12360;BME280;6244;51.460;7.090;2023-03-26T10:01:30;99279.34;;;7.50;91.33
12360;BME280;6244;51.460;7.090;2023-03-26T10:06:43;99274.03;;;7.52;91.17
12360;BME280;6244;51.460;7.090;2023-03-26T10:11:59;99268.25;;;7.61;91.29
12360;BME280;6244;51.460;7.090;2023-03-26T10:17:04;99262.72;;;7.65;91.58
12360;BME280;6244;51.460;7.090;2023-03-26T10:22:13;99257.63;;;7.64;91.67
12360;BME280;6244;51.460;7.090;2023-03-26T10:27:33;99257.91;;;7.59;91.55
12360;BME280;6244;51.460;7.090;2023-03-26T10:32:35;99257.72;;;7.62;91.71
12360;BME280;6244;51.460;7.090;2023-03-26T10:37:46;99256.78;;;7.63;91.58
12360;BME280;6244;51.460;7.090;2023-03-26T10:42:59;99260.47;;;7.31;90.93
12360;BME280;6244;51.460;7.090;2023-03-26T10:48:26;99254.06;;;6.78;90.33
12360;BME280;6244;51.460;7.090;2023-03-26T10:53:31;99260.66;;;6.54;91.19
12360;BME280;6244;51.460;7.090;2023-03-26T10:58:33;99249.22;;;6.72;91.84
12360;BME280;6244;51.460;7.090;2023-03-26T11:03:41;99251.66;;;6.89;91.46
12360;BME280;6244;51.460;7.090;2023-03-26T11:08:45;99249.22;;;6.72;91.37
12360;BME280;6244;51.460;7.090;2023-03-26T11:13:52;99243.31;;;6.68;92.02
12360;BME280;6244;51.460;7.090;2023-03-26T11:18:55;99250.91;;;6.57;91.57
12360;BME280;6244;51.460;7.090;2023-03-26T11:23:58;99247.53;;;6.71;91.92
12360;BME280;6244;51.460;7.090;2023-03-26T11:29:19;99245.53;;;6.60;91.33
12360;BME280;6244;51.460;7.090;2023-03-26T11:34:27;99249.88;;;6.45;91.08
12360;BME280;6244;51.460;7.090;2023-03-26T11:39:29;99241.22;;;6.75;92.11
12360;BME280;6244;51.460;7.090;2023-03-26T11:44:33;99246.13;;;6.95;91.99
12360;BME280;6244;51.460;7.090;2023-03-26T11:49:33;99244.06;;;7.00;92.13
12360;BME280;6244;51.460;7.090;2023-03-26T11:54:29;99239.06;;;7.12;92.28
12360;BME280;6244;51.460;7.090;2023-03-26T11:59:30;99248.84;;;7.36;92.38
12360;BME280;6244;51.460;7.090;2023-03-26T12:04:34;99246.16;;;7.38;91.99
12360;BME280;6244;51.460;7.090;2023-03-26T12:09:30;99244.09;;;7.29;91.61
12360;BME280;6244;51.460;7.090;2023-03-26T12:14:31;99238.88;;;7.29;91.62
12360;BME280;6244;51.460;7.090;2023-03-26T12:19:35;99235.91;;;7.35;92.63
12360;BME280;6244;51.460;7.090;2023-03-26T12:24:34;99231.63;;;7.48;92.78
12360;BME280;6244;51.460;7.090;2023-03-26T12:29:32;99231.59;;;7.62;92.85
12360;BME280;6244;51.460;7.090;2023-03-26T12:34:32;99229.53;;;7.68;92.93
12360;BME280;6244;51.460;7.090;2023-03-26T12:39:35;99232.53;;;7.61;92.85
12360;BME280;6244;51.460;7.090;2023-03-26T12:44:35;99226.00;;;7.69;92.67
12360;BME280;6244;51.460;7.090;2023-03-26T12:49:39;99234.78;;;7.82;92.90
12360;BME280;6244;51.460;7.090;2023-03-26T12:54:43;99218.50;;;7.91;92.60
12360;BME280;6244;51.460;7.090;2023-03-26T12:59:55;99226.28;;;8.05;92.51
12360;BME280;6244;51.460;7.090;2023-03-26T13:05:13;99222.00;;;8.04;92.51
12360;BME280;6244;51.460;7.090;2023-03-26T13:10:35;99225.03;;;8.25;92.08
12360;BME280;6244;51.460;7.090;2023-03-26T13:15:37;99218.72;;;8.15;91.75
12360;BME280;6244;51.460;7.090;2023-03-26T13:20:48;99223.13;;;8.41;92.03
12360;BME280;6244;51.460;7.090;2023-03-26T13:25:49;99219.31;;;8.47;91.39
12360;BME280;6244;51.460;7.090;2023-03-26T13:30:57;99224.84;;;8.55;90.88
12360;BME280;6244;51.460;7.090;2023-03-26T13:36:01;99221.63;;;8.64;91.39
12360;BME280;6244;51.460;7.090;2023-03-26T13:41:05;99223.75;;;8.72;91.34
12360;BME280;6244;51.460;7.090;2023-03-26T13:46:13;99220.59;;;8.67;90.77
12360;BME280;6244;51.460;7.090;2023-03-26T13:51:17;99223.78;;;8.85;90.25
12360;BME280;6244;51.460;7.090;2023-03-26T13:56:18;99229.94;;;8.83;89.69
12360;BME280;6244;51.460;7.090;2023-03-26T14:01:18;99222.13;;;8.96;89.48
12360;BME280;6244;51.460;7.090;2023-03-26T14:06:27;99224.19;;;8.91;89.48
12360;BME280;6244;51.460;7.090;2023-03-26T14:11:31;99232.56;;;8.83;89.31
12360;BME280;6244;51.460;7.090;2023-03-26T14:16:37;99235.34;;;8.68;89.53
12360;BME280;6244;51.460;7.090;2023-03-26T14:21:54;99232.53;;;8.71;89.70
12360;BME280;6244;51.460;7.090;2023-03-26T14:27:08;99239.41;;;8.59;89.56
12360;BME280;6244;51.460;7.090;2023-03-26T14:32:48;99250.31;;;8.39;88.69
12360;BME280;6244;51.460;7.090;2023-03-26T14:38:10;99258.53;;;8.33;89.13
12360;BME280;6244;51.460;7.090;2023-03-26T14:43:34;99264.44;;;8.22;89.23
12360;BME280;6244;51.460;7.090;2023-03-26T14:49:06;99268.81;;;8.21;89.26
12360;BME280;6244;51.460;7.090;2023-03-26T14:54:08;99278.47;;;8.07;89.20
12360;BME280;6244;51.460;7.090;2023-03-26T14:59:25;99286.91;;;7.83;89.56
12360;BME280;6244;51.460;7.090;2023-03-26T15:04:54;99290.78;;;7.90;90.06
12360;BME280;6244;51.460;7.090;2023-03-26T15:10:24;99294.34;;;7.89;90.13
12360;BME280;6244;51.460;7.090;2023-03-26T15:16:01;99306.56;;;7.89;90.43
12360;BME280;6244;51.460;7.090;2023-03-26T15:27:01;99321.69;;;7.70;90.21
12360;BME280;6244;51.460;7.090;2023-03-26T15:43:18;99340.50;;;7.60;90.62
12360;BME280;6244;51.460;7.090;2023-03-26T15:48:35;99352.22;;;7.53;90.60
12360;BME280;6244;51.460;7.090;2023-03-26T15:53:44;99355.69;;;7.54;90.28
12360;BME280;6244;51.460;7.090;2023-03-26T15:58:50;99364.72;;;7.48;90.04
12360;BME280;6244;51.460;7.090;2023-03-26T16:03:54;99373.31;;;7.50;90.05
12360;BME280;6244;51.460;7.090;2023-03-26T16:09:03;99384.13;;;7.58;89.90
12360;BME280;6244;51.460;7.090;2023-03-26T16:14:16;99387.00;;;7.54;90.17
12360;BME280;6244;51.460;7.090;2023-03-26T16:19:48;99395.84;;;7.51;89.89
12360;BME280;6244;51.460;7.090;2023-03-26T16:25:18;99402.84;;;7.51;90.02
12360;BME280;6244;51.460;7.090;2023-03-26T16:30:29;99416.53;;;7.40;89.96
12360;BME280;6244;51.460;7.090;2023-03-26T16:41:02;99449.22;;;7.16;89.55
12360;BME280;6244;51.460;7.090;2023-03-26T16:46:06;99460.78;;;7.12;88.97
12360;BME280;6244;51.460;7.090;2023-03-26T16:51:08;99468.25;;;7.02;89.78
12360;BME280;6244;51.460;7.090;2023-03-26T16:56:14;99474.31;;;7.02;89.46
12360;BME280;6244;51.460;7.090;2023-03-26T17:01:23;99493.66;;;7.14;89.51
12360;BME280;6244;51.460;7.090;2023-03-26T17:06:35;99501.50;;;7.14;89.13
12360;BME280;6244;51.460;7.090;2023-03-26T17:11:47;99509.00;;;7.20;89.21
12360;BME280;6244;51.460;7.090;2023-03-26T17:17:03;99519.16;;;7.25;87.91
12360;BME280;6244;51.460;7.090;2023-03-26T17:22:09;99532.78;;;7.14;88.03
12360;BME280;6244;51.460;7.090;2023-03-26T17:27:09;99539.34;;;7.05;88.15
12360;BME280;6244;51.460;7.090;2023-03-26T17:32:15;99555.13;;;7.20;88.06
12360;BME280;6244;51.460;7.090;2023-03-26T17:37:38;99569.22;;;7.16;87.81
12360;BME280;6244;51.460;7.090;2023-03-26T17:42:35;99577.81;;;7.18;87.18
12360;BME280;6244;51.460;7.090;2023-03-26T17:47:36;99578.63;;;7.02;87.15
12360;BME280;6244;51.460;7.090;2023-03-26T17:52:44;99591.66;;;6.87;87.15
12360;BME280;6244;51.460;7.090;2023-03-26T17:57:44;99610.59;;;6.90;85.38
12360;BME280;6244;51.460;7.090;2023-03-26T18:02:46;99614.75;;;6.77;85.80
12360;BME280;6244;51.460;7.090;2023-03-26T18:08:33;99630.31;;;6.78;85.26
12360;BME280;6244;51.460;7.090;2023-03-26T18:13:45;99650.81;;;6.69;84.60
12360;BME280;6244;51.460;7.090;2023-03-26T18:18:50;99652.50;;;6.70;85.16
12360;BME280;6244;51.460;7.090;2023-03-26T18:23:49;99668.28;;;6.67;84.25
12360;BME280;6244;51.460;7.090;2023-03-26T18:28:49;99679.47;;;6.69;83.55
12360;BME280;6244;51.460;7.090;2023-03-26T18:33:48;99688.84;;;6.73;84.33
12360;BME280;6244;51.460;7.090;2023-03-26T18:38:46;99707.63;;;6.62;82.16
12360;BME280;6244;51.460;7.090;2023-03-26T18:43:42;99712.84;;;6.62;82.39
12360;BME280;6244;51.460;7.090;2023-03-26T18:48:39;99720.34;;;6.68;81.07
12360;BME280;6244;51.460;7.090;2023-03-26T18:53:37;99733.47;;;6.67;82.71
12360;BME280;6244;51.460;7.090;2023-03-26T18:58:38;99737.66;;;6.69;82.17
12360;BME280;6244;51.460;7.090;2023-03-26T19:03:36;99747.22;;;6.70;81.88
12360;BME280;6244;51.460;7.090;2023-03-26T19:08:34;99761.00;;;6.90;79.98
12360;BME280;6244;51.460;7.090;2023-03-26T19:13:35;99764.63;;;6.70;81.34
12360;BME280;6244;51.460;7.090;2023-03-26T19:18:35;99768.28;;;6.66;81.78
12360;BME280;6244;51.460;7.090;2023-03-26T19:23:35;99781.69;;;6.75;82.50
12360;BME280;6244;51.460;7.090;2023-03-26T19:28:35;99790.19;;;6.62;82.53
12360;BME280;6244;51.460;7.090;2023-03-26T19:33:36;99799.34;;;6.70;82.21
12360;BME280;6244;51.460;7.090;2023-03-26T19:38:40;99809.56;;;6.56;79.89
12360;BME280;6244;51.460;7.090;2023-03-26T19:43:37;99816.53;;;6.38;76.34
12360;BME280;6244;51.460;7.090;2023-03-26T19:48:35;99820.47;;;6.28;71.67
12360;BME280;6244;51.460;7.090;2023-03-26T19:53:32;99826.38;;;6.32;69.37
12360;BME280;6244;51.460;7.090;2023-03-26T19:58:29;99841.31;;;6.28;67.46
12360;BME280;6244;51.460;7.090;2023-03-26T20:03:27;99851.72;;;6.28;67.54
12360;BME280;6244;51.460;7.090;2023-03-26T20:08:26;99858.56;;;6.31;67.46
12360;BME280;6244;51.460;7.090;2023-03-26T20:13:23;99881.22;;;6.29;68.14
12360;BME280;6244;51.460;7.090;2023-03-26T20:18:19;99888.41;;;6.42;66.86
12360;BME280;6244;51.460;7.090;2023-03-26T20:23:16;99905.66;;;6.26;65.71
12360;BME280;6244;51.460;7.090;2023-03-26T20:28:15;99907.22;;;6.30;66.14
12360;BME280;6244;51.460;7.090;2023-03-26T20:33:17;99918.91;;;6.22;65.54
12360;BME280;6244;51.460;7.090;2023-03-26T20:38:14;99928.75;;;6.15;64.87
12360;BME280;6244;51.460;7.090;2023-03-26T20:43:12;99941.53;;;6.21;65.48
12360;BME280;6244;51.460;7.090;2023-03-26T20:48:11;99950.94;;;6.24;65.33
12360;BME280;6244;51.460;7.090;2023-03-26T20:53:11;99971.03;;;6.01;64.06
12360;BME280;6244;51.460;7.090;2023-03-26T20:58:12;99970.97;;;6.03;64.80
12360;BME280;6244;51.460;7.090;2023-03-26T21:03:12;99981.13;;;6.09;64.98
12360;BME280;6244;51.460;7.090;2023-03-26T21:08:13;99993.94;;;5.93;63.51
12360;BME280;6244;51.460;7.090;2023-03-26T21:13:15;100010.84;;;5.83;63.60
12360;BME280;6244;51.460;7.090;2023-03-26T21:18:20;100021.44;;;5.78;63.24
12360;BME280;6244;51.460;7.090;2023-03-26T21:23:21;100031.28;;;5.72;63.84
12360;BME280;6244;51.460;7.090;2023-03-26T21:28:28;100043.09;;;5.58;63.68
12360;BME280;6244;51.460;7.090;2023-03-26T21:33:27;100049.25;;;5.56;62.93
12360;BME280;6244;51.460;7.090;2023-03-26T21:38:24;100070.53;;;5.44;64.08
12360;BME280;6244;51.460;7.090;2023-03-26T21:43:21;100076.72;;;5.41;62.99
12360;BME280;6244;51.460;7.090;2023-03-26T21:48:19;100090.91;;;5.32;63.59
12360;BME280;6244;51.460;7.090;2023-03-26T21:53:17;100095.59;;;5.24;63.01
12360;BME280;6244;51.460;7.090;2023-03-26T21:58:31;100109.09;;;5.34;63.06
12360;BME280;6244;51.460;7.090;2023-03-26T22:03:33;100107.13;;;5.17;62.98
12360;BME280;6244;51.460;7.090;2023-03-26T22:08:36;100127.53;;;5.05;63.33
12360;BME280;6244;51.460;7.090;2023-03-26T22:13:33;100138.31;;;4.94;63.86
12360;BME280;6244;51.460;7.090;2023-03-26T22:18:33;100149.41;;;4.99;63.62
12360;BME280;6244;51.460;7.090;2023-03-26T22:23:29;100167.50;;;5.02;64.16
12360;BME280;6244;51.460;7.090;2023-03-26T22:28:29;100170.19;;;4.76;64.59
12360;BME280;6244;51.460;7.090;2023-03-26T22:33:26;100172.56;;;4.82;63.99
12360;BME280;6244;51.460;7.090;2023-03-26T22:38:23;100186.44;;;4.81;64.00
12360;BME280;6244;51.460;7.090;2023-03-26T22:43:19;100186.63;;;5.01;63.64
12360;BME280;6244;51.460;7.090;2023-03-26T22:48:17;100197.06;;;4.99;63.92
12360;BME280;6244;51.460;7.090;2023-03-26T22:53:13;100200.78;;;4.92;64.20
12360;BME280;6244;51.460;7.090;2023-03-26T22:58:10;100206.13;;;4.63;65.21
12360;BME280;6244;51.460;7.090;2023-03-26T23:03:06;100221.25;;;4.77;64.68
12360;BME280;6244;51.460;7.090;2023-03-26T23:08:04;100225.72;;;4.73;63.95
12360;BME280;6244;51.460;7.090;2023-03-26T23:13:01;100242.53;;;4.63;63.97
12360;BME280;6244;51.460;7.090;2023-03-26T23:17:58;100252.56;;;4.74;64.19
12360;BME280;6244;51.460;7.090;2023-03-26T23:22:56;100266.91;;;4.85;64.07
12360;BME280;6244;51.460;7.090;2023-03-26T23:27:53;100274.69;;;4.85;64.38
12360;BME280;6244;51.460;7.090;2023-03-26T23:32:50;100281.66;;;4.83;64.25
12360;BME280;6244;51.460;7.090;2023-03-26T23:37:47;100288.69;;;4.81;64.30
12360;BME280;6244;51.460;7.090;2023-03-26T23:42:45;100299.25;;;4.77;64.79
12360;BME280;6244;51.460;7.090;2023-03-26T23:47:43;100310.22;;;4.58;65.45
12360;BME280;6244;51.460;7.090;2023-03-26T23:52:40;100315.22;;;4.64;64.92
12360;BME280;6244;51.460;7.090;2023-03-26T23:57:39;100338.00;;;4.56;64.62
